Time;durP1;ratioP1;P1;durP2;ratioP2;P2;SDS_P1;SDS_P2;PMS_P1;PMS_P2;Temp;Humidity;BMP_temperature;BMP_pressure;BME280_temperature;BME280_humidity;BME280_pressure;Samples;Min_cycle;Max_cycle;Signal;HPM_P1;HPM_P2
2021/09/09 00:01:36;;;;;;;10.90;9.80;;;17.00;99.90;;;;;;4942819;28;21061;-74
2021/09/09 00:04:01;;;;;;;10.23;9.23;;;16.90;99.90;;;;;;4942433;28;21016;-74
2021/09/09 00:06:29;;;;;;;11.10;10.07;;;16.90;99.90;;;;;;4941579;28;20638;-74
2021/09/09 00:09:05;;;;;;;10.10;9.10;;;16.90;99.90;;;;;;4924814;29;20188;-73
2021/09/09 00:11:31;;;;;;;11.10;10.00;;;16.80;99.90;;;;;;4939685;28;20685;-74
2021/09/09 00:13:57;;;;;;;9.43;8.63;;;16.80;99.90;;;;;;4943446;28;20927;-73
2021/09/09 00:16:23;;;;;;;10.27;9.37;;;16.70;99.90;;;;;;4946929;28;20736;-73
2021/09/09 00:18:49;;;;;;;10.83;9.73;;;16.80;99.90;;;;;;4940758;28;20272;-73
2021/09/09 00:21:14;;;;;;;10.47;9.53;;;16.70;99.90;;;;;;4947230;28;20638;-74
2021/09/09 00:23:40;;;;;;;10.37;9.13;;;16.70;99.90;;;;;;4940547;28;20684;-73
2021/09/09 00:26:05;;;;;;;11.10;10.00;;;16.80;99.90;;;;;;4939977;28;20266;-73
2021/09/09 00:28:31;;;;;;;10.30;9.40;;;16.80;99.90;;;;;;4938126;28;20199;-74
2021/09/09 00:30:59;;;;;;;10.93;9.90;;;16.70;99.90;;;;;;4940269;28;20207;-74
2021/09/09 00:33:27;;;;;;;10.60;9.50;;;16.70;99.90;;;;;;4944522;28;20203;-74
2021/09/09 00:35:52;;;;;;;11.10;10.03;;;16.70;99.90;;;;;;4936021;28;20686;-74
2021/09/09 00:38:20;;;;;;;10.33;9.20;;;16.70;99.90;;;;;;4939022;28;21493;-74
2021/09/09 00:40:46;;;;;;;10.60;9.60;;;16.60;99.90;;;;;;4941036;28;20212;-73
2021/09/09 00:43:19;;;;;;;10.87;9.87;;;16.60;99.90;;;;;;4939551;28;20667;-74
2021/09/09 00:45:54;;;;;;;11.70;10.60;;;16.60;99.90;;;;;;4938352;28;20349;-73
2021/09/09 00:48:21;;;;;;;10.83;9.67;;;16.50;99.90;;;;;;4939430;28;21154;-73
2021/09/09 00:50:50;;;;;;;10.37;9.47;;;16.50;99.90;;;;;;4940663;28;20665;-73
2021/09/09 00:53:17;;;;;;;11.03;10.03;;;16.50;99.90;;;;;;4944935;28;20626;-73
2021/09/09 00:55:43;;;;;;;10.70;9.70;;;16.50;99.90;;;;;;4943011;28;20651;-74
2021/09/09 00:58:09;;;;;;;10.77;9.87;;;16.50;99.90;;;;;;4939439;28;23095;-74
2021/09/09 01:00:38;;;;;;;10.47;9.50;;;16.50;99.90;;;;;;4941641;28;20745;-76
2021/09/09 01:03:07;;;;;;;11.70;10.50;;;16.50;99.90;;;;;;4938596;28;21178;-73
2021/09/09 01:05:37;;;;;;;11.37;10.27;;;16.40;99.90;;;;;;4936091;28;20643;-73
2021/09/09 01:08:04;;;;;;;10.77;9.83;;;16.40;99.90;;;;;;4946470;29;20615;-75
2021/09/09 01:10:29;;;;;;;11.10;10.10;;;16.40;99.90;;;;;;4957078;28;20677;-73
2021/09/09 01:12:55;;;;;;;10.33;9.43;;;16.40;99.90;;;;;;4941544;28;20953;-74
2021/09/09 01:15:21;;;;;;;11.50;10.13;;;16.40;99.90;;;;;;4938742;28;21038;-73
2021/09/09 01:17:47;;;;;;;10.13;9.20;;;16.40;99.90;;;;;;4924586;29;20570;-74
2021/09/09 01:20:12;;;;;;;11.10;10.13;;;16.30;99.90;;;;;;4940918;28;20684;-73
2021/09/09 01:22:44;;;;;;;12.43;11.30;;;16.30;99.90;;;;;;4925908;29;20731;-74
2021/09/09 01:25:12;;;;;;;10.90;10.00;;;16.30;99.90;;;;;;4938192;28;20258;-73
2021/09/09 01:27:38;;;;;;;11.67;10.47;;;16.20;99.90;;;;;;4938917;28;20645;-73
2021/09/09 01:30:04;;;;;;;10.97;10.00;;;16.30;99.90;;;;;;4922344;28;21666;-73
2021/09/09 01:32:30;;;;;;;11.70;10.70;;;16.30;99.90;;;;;;4937678;28;20774;-73
2021/09/09 01:34:55;;;;;;;12.20;10.70;;;16.20;99.90;;;;;;4946147;28;20661;-73
2021/09/09 01:37:22;;;;;;;11.60;10.60;;;16.20;99.90;;;;;;4940531;28;20195;-76
2021/09/09 01:39:55;;;;;;;12.03;10.87;;;16.20;99.90;;;;;;4939491;28;20354;-74
2021/09/09 01:42:20;;;;;;;12.10;11.00;;;16.20;99.90;;;;;;4939453;28;23326;-74
2021/09/09 01:44:46;;;;;;;12.90;11.63;;;16.20;99.90;;;;;;4921261;28;20753;-74
2021/09/09 01:47:12;;;;;;;12.20;10.93;;;16.20;99.90;;;;;;4921613;29;20246;-74
2021/09/09 01:49:38;;;;;;;14.20;10.93;;;16.10;99.90;;;;;;4922838;28;20678;-73
2021/09/09 01:52:04;;;;;;;11.87;10.87;;;16.10;99.90;;;;;;4938226;28;20589;-74
2021/09/09 01:54:29;;;;;;;14.33;12.90;;;16.10;99.90;;;;;;4938467;28;20195;-73
2021/09/09 01:56:55;;;;;;;12.23;11.17;;;16.00;99.90;;;;;;4939764;28;20658;-74
2021/09/09 01:59:20;;;;;;;11.83;10.70;;;15.90;99.90;;;;;;4922630;29;20192;-73
2021/09/09 02:01:46;;;;;;;12.40;11.40;;;15.90;99.90;;;;;;4942305;28;20259;-76
2021/09/09 02:04:14;;;;;;;12.93;11.73;;;16.00;99.90;;;;;;4917891;28;20191;-74
2021/09/09 02:06:47;;;;;;;12.83;11.63;;;16.00;99.90;;;;;;4937395;28;20303;-74
2021/09/09 02:09:15;;;;;;;12.70;11.60;;;16.00;99.90;;;;;;4941598;28;20990;-73
2021/09/09 02:11:41;;;;;;;12.37;11.13;;;16.00;99.90;;;;;;4938488;28;21804;-73
2021/09/09 02:14:06;;;;;;;12.07;11.07;;;16.00;99.90;;;;;;4941277;28;20642;-73
2021/09/09 02:16:32;;;;;;;12.63;11.47;;;15.80;99.90;;;;;;4938841;28;20864;-74
2021/09/09 02:19:00;;;;;;;12.50;11.30;;;15.90;99.90;;;;;;4920616;29;20274;-73
2021/09/09 02:21:26;;;;;;;13.10;11.80;;;15.90;99.90;;;;;;4937150;28;20230;-74
2021/09/09 02:23:51;;;;;;;13.00;11.80;;;15.80;99.90;;;;;;4921321;29;20615;-73
2021/09/09 02:26:25;;;;;;;13.33;12.10;;;15.80;99.90;;;;;;4919407;28;21038;-74
2021/09/09 02:28:51;;;;;;;13.37;11.97;;;15.80;99.90;;;;;;4934062;28;20188;-75
2021/09/09 02:31:16;;;;;;;13.10;11.90;;;15.80;99.90;;;;;;4920901;29;21041;-73
2021/09/09 02:33:44;;;;;;;13.17;11.83;;;15.80;99.90;;;;;;4933725;28;20207;-73
2021/09/09 02:36:14;;;;;;;13.93;12.67;;;15.80;99.90;;;;;;4939868;28;20228;-74
2021/09/09 02:38:42;;;;;;;13.30;12.10;;;15.80;99.90;;;;;;4935835;28;21230;-75
2021/09/09 02:41:08;;;;;;;13.37;11.97;;;15.80;99.90;;;;;;4936211;28;21258;-74
2021/09/09 02:43:36;;;;;;;13.27;12.07;;;15.70;99.90;;;;;;4934766;28;20630;-74
2021/09/09 02:46:02;;;;;;;11.80;10.70;;;15.70;99.90;;;;;;4934555;28;20378;-75
2021/09/09 02:48:27;;;;;;;12.07;11.00;;;15.70;99.90;;;;;;4915367;28;22473;-73
2021/09/09 02:50:55;;;;;;;13.17;11.80;;;15.70;99.90;;;;;;4936579;28;20651;-73
2021/09/09 02:53:23;;;;;;;13.30;12.20;;;15.70;99.90;;;;;;4937394;29;20214;-73
2021/09/09 02:55:48;;;;;;;11.83;10.67;;;15.70;99.90;;;;;;4938226;28;20737;-74
2021/09/09 02:58:14;;;;;;;12.57;11.37;;;15.70;99.90;;;;;;4937237;28;20627;-73
2021/09/09 03:00:42;;;;;;;12.30;11.17;;;15.70;99.90;;;;;;4938132;28;20219;-73
2021/09/09 03:03:07;;;;;;;12.97;11.57;;;15.70;99.90;;;;;;4939523;28;20195;-74
2021/09/09 03:05:33;;;;;;;12.53;11.40;;;15.70;99.90;;;;;;4930303;28;20639;-74
2021/09/09 03:07:58;;;;;;;12.60;11.30;;;15.60;99.90;;;;;;4939683;28;20330;-74
2021/09/09 03:10:24;;;;;;;12.27;11.17;;;15.60;99.90;;;;;;4936548;28;20303;-75
2021/09/09 03:12:49;;;;;;;12.77;11.57;;;15.50;99.90;;;;;;4941006;28;20195;-74
2021/09/09 03:15:15;;;;;;;12.60;11.30;;;15.60;99.90;;;;;;4940795;28;20231;-74
2021/09/09 03:17:43;;;;;;;12.20;11.10;;;15.50;99.90;;;;;;4939641;28;20191;-73
2021/09/09 03:20:09;;;;;;;12.33;11.17;;;15.50;99.90;;;;;;4941857;28;20192;-73
2021/09/09 03:22:35;;;;;;;13.10;11.90;;;15.50;99.90;;;;;;4938653;28;20623;-73
2021/09/09 03:25:03;;;;;;;11.77;10.63;;;15.40;99.90;;;;;;4940450;28;20733;-74
2021/09/09 03:27:29;;;;;;;12.80;11.60;;;15.40;99.90;;;;;;4940630;28;20198;-73
2021/09/09 03:29:54;;;;;;;13.37;12.07;;;15.40;99.90;;;;;;4943251;28;20619;-74
2021/09/09 03:32:20;;;;;;;12.43;11.33;;;15.40;99.90;;;;;;4937452;28;20219;-74
2021/09/09 03:34:48;;;;;;;13.40;12.10;;;15.30;99.90;;;;;;4938285;28;20226;-74
2021/09/09 03:37:13;;;;;;;14.10;12.80;;;15.40;99.90;;;;;;4945723;28;20218;-74
2021/09/09 03:39:39;;;;;;;12.53;11.27;;;15.40;99.90;;;;;;4938851;28;21198;-73
2021/09/09 03:42:07;;;;;;;13.40;12.17;;;15.40;99.90;;;;;;4938647;28;20226;-74
2021/09/09 03:44:35;;;;;;;12.37;11.27;;;15.40;99.90;;;;;;4936806;28;20202;-73
2021/09/09 03:47:04;;;;;;;12.67;11.37;;;15.40;99.90;;;;;;4943106;28;20952;-73
2021/09/09 03:49:32;;;;;;;13.23;12.03;;;15.30;99.90;;;;;;4941320;28;20626;-73
2021/09/09 03:52:01;;;;;;;13.57;12.23;;;15.30;99.90;;;;;;4947597;28;20682;-77
2021/09/09 03:54:29;;;;;;;13.20;11.87;;;15.30;99.90;;;;;;4961985;28;20631;-74
2021/09/09 03:56:54;;;;;;;13.37;11.97;;;15.30;99.90;;;;;;4960545;28;20647;-74
2021/09/09 03:59:23;;;;;;;14.03;12.73;;;15.30;99.90;;;;;;4949925;28;20620;-75
2021/09/09 04:01:48;;;;;;;12.70;11.50;;;15.30;99.90;;;;;;4941003;28;20362;-74
2021/09/09 04:04:16;;;;;;;13.23;12.00;;;15.30;99.90;;;;;;4920907;29;20734;-74
2021/09/09 04:06:42;;;;;;;14.10;12.80;;;15.30;99.90;;;;;;4929197;28;20227;-76
2021/09/09 04:09:09;;;;;;;13.47;12.07;;;15.20;99.90;;;;;;4941050;29;20756;-73
2021/09/09 04:11:36;;;;;;;14.40;12.73;;;15.30;99.90;;;;;;4940123;28;20238;-76
2021/09/09 04:14:02;;;;;;;13.70;12.03;;;15.20;99.90;;;;;;4925239;29;20622;-74
2021/09/09 04:16:30;;;;;;;12.53;11.43;;;15.20;99.90;;;;;;4937361;28;20705;-74
2021/09/09 04:18:58;;;;;;;13.73;12.47;;;15.20;99.90;;;;;;4941243;28;20611;-74
2021/09/09 04:21:24;;;;;;;13.33;12.10;;;15.20;99.90;;;;;;4940254;28;20775;-73
2021/09/09 04:23:49;;;;;;;13.57;12.30;;;15.20;99.90;;;;;;4940956;28;20710;-73
2021/09/09 04:26:17;;;;;;;14.77;13.47;;;15.10;99.90;;;;;;4926457;28;21945;-73
2021/09/09 04:28:45;;;;;;;14.03;12.60;;;15.10;99.90;;;;;;4938533;28;20192;-74
2021/09/09 04:31:11;;;;;;;14.00;12.70;;;15.10;99.90;;;;;;4933817;28;21491;-74
2021/09/09 04:33:36;;;;;;;14.93;13.60;;;15.20;99.90;;;;;;4936523;28;20629;-73
2021/09/09 04:36:04;;;;;;;12.80;11.60;;;15.10;99.90;;;;;;4942713;28;20560;-73
2021/09/09 04:38:31;;;;;;;13.53;12.30;;;15.10;99.90;;;;;;4947098;28;20312;-73
2021/09/09 04:40:56;;;;;;;14.37;12.93;;;15.10;99.90;;;;;;4945717;28;20638;-74
2021/09/09 04:43:24;;;;;;;13.13;11.93;;;15.20;99.90;;;;;;4949188;28;20659;-73
2021/09/09 04:45:54;;;;;;;13.93;12.63;;;15.20;99.90;;;;;;4949882;28;20227;-74
2021/09/09 04:48:20;;;;;;;14.50;13.23;;;15.20;99.90;;;;;;4944491;28;20611;-73
2021/09/09 04:50:47;;;;;;;15.10;13.70;;;15.30;99.90;;;;;;4931489;29;21066;-73
2021/09/09 04:53:13;;;;;;;14.90;13.60;;;15.20;99.90;;;;;;4942872;28;20279;-73
2021/09/09 04:55:38;;;;;;;14.87;13.40;;;15.20;99.90;;;;;;4945779;28;21089;-73
2021/09/09 04:58:04;;;;;;;14.47;13.10;;;15.20;99.90;;;;;;4935319;29;20191;-74
2021/09/09 05:00:30;;;;;;;13.80;12.50;;;15.20;99.90;;;;;;4942235;28;20216;-76
2021/09/09 05:02:55;;;;;;;13.77;12.47;;;15.20;99.90;;;;;;4945955;28;20219;-75
2021/09/09 05:05:25;;;;;;;14.37;12.97;;;15.30;99.90;;;;;;4926249;28;20216;-75
2021/09/09 05:07:51;;;;;;;15.63;14.03;;;15.30;99.90;;;;;;4948013;28;20211;-77
2021/09/09 05:10:17;;;;;;;15.80;14.40;;;15.30;99.90;;;;;;4926111;28;20655;-74
2021/09/09 05:12:42;;;;;;;14.37;12.97;;;15.30;99.90;;;;;;4943645;28;20226;-74
2021/09/09 05:15:08;;;;;;;14.87;13.50;;;15.30;99.90;;;;;;4929556;28;20658;-75
2021/09/09 05:17:34;;;;;;;15.03;13.63;;;15.30;99.90;;;;;;4932001;28;23928;-74
2021/09/09 05:19:59;;;;;;;16.20;14.60;;;15.30;99.90;;;;;;4939629;28;21183;-74
2021/09/09 05:22:25;;;;;;;14.83;13.33;;;15.30;99.90;;;;;;4940715;28;20212;-74
2021/09/09 05:24:50;;;;;;;15.73;14.20;;;15.40;99.90;;;;;;4940511;28;20229;-74
2021/09/09 05:27:16;;;;;;;17.90;15.67;;;15.30;99.90;;;;;;4936184;28;20191;-73
2021/09/09 05:29:41;;;;;;;16.07;14.40;;;15.30;99.90;;;;;;4938025;28;20199;-73
2021/09/09 05:32:07;;;;;;;17.10;15.50;;;15.40;99.90;;;;;;4939616;28;20273;-73
2021/09/09 05:34:33;;;;;;;22.23;19.00;;;15.40;99.90;;;;;;4941357;28;20241;-73
2021/09/09 05:36:58;;;;;;;24.10;20.30;;;15.50;99.90;;;;;;4943804;28;20211;-74
2021/09/09 05:39:24;;;;;;;23.13;20.83;;;15.60;99.90;;;;;;4941277;28;20234;-74
2021/09/09 05:41:49;;;;;;;23.77;21.47;;;15.70;99.90;;;;;;4939084;28;20212;-73
2021/09/09 05:44:15;;;;;;;22.30;20.00;;;15.80;99.90;;;;;;4944487;28;20192;-73
2021/09/09 05:46:40;;;;;;;22.30;20.10;;;15.90;99.90;;;;;;4944565;28;20215;-73
2021/09/09 05:49:06;;;;;;;22.43;20.03;;;16.00;99.90;;;;;;4946433;28;20243;-74
2021/09/09 05:51:31;;;;;;;21.97;19.90;;;16.00;99.90;;;;;;4947917;28;20215;-73
2021/09/09 05:53:59;;;;;;;22.67;20.40;;;16.20;99.90;;;;;;4946258;28;20203;-73
2021/09/09 05:56:24;;;;;;;24.33;22.03;;;16.20;99.90;;;;;;4943322;28;20250;-73
2021/09/09 05:58:51;;;;;;;22.37;20.20;;;16.30;99.90;;;;;;4945784;28;20607;-73
2021/09/09 06:01:17;;;;;;;23.40;20.97;;;16.40;99.90;;;;;;4941867;28;20211;-73
2021/09/09 06:03:45;;;;;;;22.33;20.13;;;16.50;99.90;;;;;;4941320;28;21150;-73
2021/09/09 06:06:15;;;;;;;23.20;20.80;;;16.50;99.90;;;;;;4938538;28;20239;-73
2021/09/09 06:08:42;;;;;;;24.70;21.20;;;16.50;99.90;;;;;;4924996;28;20816;-74
2021/09/09 06:11:08;;;;;;;24.07;21.67;;;16.60;99.90;;;;;;4936001;28;20678;-73
2021/09/09 06:13:33;;;;;;;22.70;20.40;;;16.60;99.90;;;;;;4940538;28;21189;-73
2021/09/09 06:16:01;;;;;;;23.13;20.67;;;16.70;99.90;;;;;;4939929;28;20227;-72
2021/09/09 06:18:27;;;;;;;23.00;20.80;;;16.70;99.90;;;;;;4937709;28;20270;-73
2021/09/09 06:20:53;;;;;;;22.50;20.40;;;16.80;99.90;;;;;;4939681;28;20639;-73
2021/09/09 06:23:18;;;;;;;21.83;19.63;;;16.90;99.90;;;;;;4933261;28;20725;-74
2021/09/09 06:25:44;;;;;;;22.90;20.67;;;16.90;99.90;;;;;;4940106;28;20234;-73
2021/09/09 06:28:10;;;;;;;22.33;20.23;;;16.90;99.90;;;;;;4940718;28;20632;-73
2021/09/09 06:30:36;;;;;;;21.77;19.67;;;16.80;99.90;;;;;;4943219;28;20342;-74
2021/09/09 06:33:01;;;;;;;23.37;21.07;;;16.90;99.90;;;;;;4939004;28;20283;-73
2021/09/09 06:35:29;;;;;;;21.63;19.40;;;17.00;99.90;;;;;;4942254;28;20738;-73
2021/09/09 06:37:55;;;;;;;20.97;18.87;;;17.10;99.90;;;;;;4940024;28;20215;-74
2021/09/09 06:40:21;;;;;;;22.47;20.07;;;17.20;99.90;;;;;;4947917;28;20625;-74
2021/09/09 06:42:47;;;;;;;21.90;19.70;;;17.20;99.90;;;;;;4961109;28;20620;-74
2021/09/09 06:45:13;;;;;;;21.40;19.30;;;17.30;99.90;;;;;;4949973;28;20659;-73
2021/09/09 06:47:39;;;;;;;21.90;19.73;;;17.30;99.90;;;;;;4924309;28;20192;-74
2021/09/09 06:50:05;;;;;;;23.47;21.00;;;17.40;99.90;;;;;;4941840;28;20311;-73
2021/09/09 06:52:31;;;;;;;21.43;19.33;;;17.40;99.90;;;;;;4940425;28;20219;-74
2021/09/09 06:54:56;;;;;;;22.10;19.90;;;17.60;99.90;;;;;;4926747;28;20810;-74
2021/09/09 06:57:22;;;;;;;21.50;19.20;;;17.60;99.90;;;;;;4937299;28;20187;-73
2021/09/09 06:59:47;;;;;;;20.77;18.80;;;17.70;99.90;;;;;;4939249;28;20191;-73
2021/09/09 07:02:13;;;;;;;20.27;18.30;;;17.70;99.90;;;;;;4942804;28;23566;-74
2021/09/09 07:04:38;;;;;;;20.00;18.07;;;17.80;99.90;;;;;;4942464;28;20397;-73
2021/09/09 07:07:04;;;;;;;21.83;19.53;;;17.80;99.90;;;;;;4924690;29;20199;-74
2021/09/09 07:09:29;;;;;;;21.67;19.37;;;17.90;99.90;;;;;;4923206;28;20648;-74
2021/09/09 07:11:55;;;;;;;19.90;18.00;;;17.90;99.90;;;;;;4933999;28;20238;-74
2021/09/09 07:14:20;;;;;;;21.43;18.23;;;18.00;99.90;;;;;;4939671;28;20571;-74
2021/09/09 07:16:47;;;;;;;20.60;18.37;;;18.10;99.90;;;;;;4922847;29;20678;-73
2021/09/09 07:19:12;;;;;;;21.17;18.97;;;18.10;99.90;;;;;;4944634;28;20196;-73
2021/09/09 07:21:38;;;;;;;16.93;15.40;;;18.10;99.90;;;;;;4943083;28;20698;-74
2021/09/09 07:24:05;;;;;;;18.07;16.37;;;18.20;99.90;;;;;;4935057;29;20203;-73
2021/09/09 07:26:38;;;;;;;18.73;17.03;;;18.30;99.90;;;;;;4946313;28;20658;-73
2021/09/09 07:29:03;;;;;;;18.10;16.30;;;18.30;99.90;;;;;;4941200;28;20621;-73
2021/09/09 07:31:29;;;;;;;17.17;15.30;;;18.40;99.90;;;;;;4944424;28;20650;-73
2021/09/09 07:33:54;;;;;;;17.77;16.17;;;18.60;99.90;;;;;;4941162;28;20639;-74
2021/09/09 07:36:20;;;;;;;19.00;17.10;;;18.60;99.90;;;;;;4943246;28;20226;-74
2021/09/09 07:38:45;;;;;;;17.37;15.57;;;18.60;99.90;;;;;;4947180;29;20199;-73
2021/09/09 07:41:11;;;;;;;18.73;16.47;;;18.60;99.90;;;;;;4945499;28;20230;-73
2021/09/09 07:43:38;;;;;;;18.00;16.20;;;18.60;99.90;;;;;;4926507;28;20214;-73
2021/09/09 07:46:04;;;;;;;16.70;15.10;;;18.70;99.90;;;;;;4945375;28;20228;-74
2021/09/09 07:48:30;;;;;;;16.77;15.17;;;18.80;99.90;;;;;;4946582;28;20643;-73
2021/09/09 07:50:55;;;;;;;16.70;15.13;;;19.00;99.90;;;;;;4948745;28;20218;-74
2021/09/09 07:53:21;;;;;;;17.60;15.83;;;19.10;99.90;;;;;;4950047;28;20208;-73
2021/09/09 07:55:46;;;;;;;17.83;16.03;;;19.10;99.90;;;;;;4948508;28;20251;-74
2021/09/09 07:58:15;;;;;;;18.07;16.30;;;19.20;99.90;;;;;;4944528;28;20850;-74
2021/09/09 08:00:41;;;;;;;17.87;16.10;;;19.30;99.90;;;;;;4944926;28;20646;-73
2021/09/09 08:03:06;;;;;;;15.80;14.40;;;19.30;99.90;;;;;;4947798;28;21521;-73
2021/09/09 08:05:32;;;;;;;18.10;16.40;;;19.40;99.90;;;;;;4946760;28;20722;-73
2021/09/09 08:07:57;;;;;;;17.43;14.80;;;19.60;99.90;;;;;;4946957;28;20195;-74
2021/09/09 08:10:23;;;;;;;16.03;14.43;;;19.70;99.90;;;;;;4945216;28;20219;-74
2021/09/09 08:12:48;;;;;;;15.97;14.47;;;19.80;99.90;;;;;;4946689;28;20191;-74
2021/09/09 08:15:15;;;;;;;15.53;14.10;;;19.90;99.90;;;;;;4937057;28;22166;-74
2021/09/09 08:17:41;;;;;;;15.37;14.00;;;20.00;99.90;;;;;;4927034;29;20286;-74
2021/09/09 08:20:07;;;;;;;15.27;13.83;;;20.00;99.90;;;;;;4946770;28;20631;-75
2021/09/09 08:22:33;;;;;;;15.30;13.90;;;20.20;99.90;;;;;;4946434;28;20706;-74
2021/09/09 08:24:59;;;;;;;15.23;13.83;;;20.20;99.90;;;;;;4942743;28;20987;-74
2021/09/09 08:27:25;;;;;;;15.10;13.77;;;20.30;99.90;;;;;;4946710;28;20192;-73
2021/09/09 08:29:53;;;;;;;15.13;13.63;;;20.40;99.90;;;;;;4928977;29;20184;-74
2021/09/09 08:32:18;;;;;;;14.93;13.60;;;20.50;99.90;;;;;;4947588;28;20711;-74
2021/09/09 08:34:44;;;;;;;14.73;13.30;;;20.60;99.90;;;;;;4945557;28;20623;-74
2021/09/09 08:37:09;;;;;;;14.77;13.40;;;20.70;99.90;;;;;;4945141;28;20223;-74
2021/09/09 08:39:37;;;;;;;13.93;12.63;;;20.80;99.90;;;;;;4932297;29;20210;-74
2021/09/09 08:42:03;;;;;;;14.47;13.17;;;20.80;99.90;;;;;;4942937;28;20258;-74
2021/09/09 08:44:29;;;;;;;13.70;12.40;;;20.90;99.90;;;;;;4943176;28;20641;-74
2021/09/09 08:46:59;;;;;;;14.10;12.90;;;21.00;99.90;;;;;;4945989;28;20623;-74
2021/09/09 08:49:26;;;;;;;13.83;12.60;;;21.10;99.90;;;;;;4946509;28;20314;-74
2021/09/09 08:51:52;;;;;;;12.90;11.77;;;21.20;99.90;;;;;;4932367;29;20753;-73
2021/09/09 08:54:18;;;;;;;13.17;11.77;;;21.20;99.90;;;;;;4947468;28;20637;-74
2021/09/09 08:56:43;;;;;;;13.10;11.90;;;21.30;99.90;;;;;;4946020;28;20714;-73
2021/09/09 08:59:09;;;;;;;13.47;12.37;;;21.40;99.90;;;;;;4937338;29;20191;-74
2021/09/09 09:01:37;;;;;;;14.00;12.70;;;21.50;99.90;;;;;;4946181;28;20215;-75
2021/09/09 09:04:06;;;;;;;12.80;11.67;;;21.60;99.90;;;;;;4946390;28;20214;-74
2021/09/09 09:06:36;;;;;;;13.33;12.13;;;21.60;99.90;;;;;;4944055;28;20667;-74
2021/09/09 09:09:04;;;;;;;12.30;11.30;;;21.70;99.90;;;;;;4930437;29;20721;-73
2021/09/09 09:11:35;;;;;;;12.50;11.40;;;21.90;99.90;;;;;;4942773;28;20670;-74
2021/09/09 09:14:01;;;;;;;12.87;11.67;;;22.00;99.90;;;;;;4923683;29;20763;-74
2021/09/09 09:16:28;;;;;;;11.73;10.73;;;22.00;99.90;;;;;;4920347;28;20679;-74
2021/09/09 09:18:57;;;;;;;12.43;11.23;;;22.10;99.90;;;;;;4927605;28;20628;-74
2021/09/09 09:21:26;;;;;;;13.00;11.60;;;22.20;99.90;;;;;;4948175;28;20737;-73
2021/09/09 09:23:54;;;;;;;12.77;11.57;;;22.30;99.90;;;;;;4946982;28;20664;-74
2021/09/09 09:26:20;;;;;;;12.67;11.40;;;22.30;99.90;;;;;;4939826;28;20642;-74
2021/09/09 09:28:54;;;;;;;11.13;10.20;;;22.40;99.90;;;;;;4945311;28;20631;-74
2021/09/09 09:31:22;;;;;;;12.00;11.00;;;22.50;99.90;;;;;;4948769;28;20293;-73
2021/09/09 09:33:56;;;;;;;11.60;10.60;;;22.60;99.90;;;;;;4960000;28;20615;-74
2021/09/09 09:36:32;;;;;;;11.47;10.27;;;22.70;99.90;;;;;;4965288;28;21139;-74
2021/09/09 09:39:10;;;;;;;11.50;10.40;;;22.80;99.90;;;;;;4956103;28;20701;-74
2021/09/09 09:41:55;;;;;;;11.13;10.03;;;22.80;99.90;;;;;;4950879;28;20662;-74
2021/09/09 09:44:35;;;;;;;11.90;10.73;;;23.00;99.90;;;;;;4946087;28;20642;-74
2021/09/09 09:47:15;;;;;;;11.20;10.03;;;23.00;99.90;;;;;;4944591;28;21223;-74
2021/09/09 09:49:47;;;;;;;11.10;10.10;;;23.10;99.90;;;;;;4929325;29;20639;-74
2021/09/09 09:52:24;;;;;;;12.17;11.07;;;23.20;99.90;;;;;;4947149;28;20666;-74
2021/09/09 09:54:58;;;;;;;12.43;11.23;;;23.30;99.90;;;;;;4947572;28;20646;-74
2021/09/09 09:57:36;;;;;;;11.20;10.10;;;23.40;99.90;;;;;;4924505;28;20629;-74
2021/09/09 10:00:03;;;;;;;11.00;10.00;;;23.60;99.90;;;;;;4948276;29;21363;-74
2021/09/09 10:02:29;;;;;;;10.60;9.60;;;23.60;99.90;;;;;;4946261;28;20731;-74
2021/09/09 10:04:59;;;;;;;10.97;10.07;;;23.70;99.90;;;;;;4943414;28;20643;-75
2021/09/09 10:07:25;;;;;;;10.37;9.33;;;23.80;99.90;;;;;;4921586;28;20722;-74
2021/09/09 10:09:51;;;;;;;10.53;9.50;;;23.90;99.90;;;;;;4944015;28;21175;-74
2021/09/09 10:12:17;;;;;;;10.60;9.70;;;24.10;99.90;;;;;;4945495;28;20258;-74
2021/09/09 10:14:49;;;;;;;10.23;9.33;;;24.20;99.90;;;;;;4946058;28;20670;-74
2021/09/09 10:17:20;;;;;;;10.53;9.63;;;24.20;99.90;;;;;;4946410;28;20254;-74
2021/09/09 10:19:46;;;;;;;11.00;9.80;;;24.30;99.90;;;;;;4943175;28;20729;-74
2021/09/09 10:22:20;;;;;;;10.50;9.43;;;24.40;99.90;;;;;;4939764;28;21313;-73
2021/09/09 10:24:48;;;;;;;53.37;15.40;;;24.50;99.90;;;;;;4947147;28;20298;-73
2021/09/09 10:27:42;;;;;;;9.50;8.60;;;24.60;99.90;;;;;;4944426;28;20662;-74
2021/09/09 10:30:19;;;;;;;11.20;10.00;;;24.60;99.90;;;;;;4936354;28;20635;-73
2021/09/09 10:32:55;;;;;;;10.20;9.10;;;24.80;99.90;;;;;;4944745;28;20622;-75
2021/09/09 10:35:29;;;;;;;11.00;9.90;;;24.80;99.90;;;;;;4943278;28;20670;-74
2021/09/09 10:37:56;;;;;;;28.10;12.20;;;24.90;99.90;;;;;;4948151;28;20606;-74
2021/09/09 10:40:42;;;;;;;14.60;9.40;;;24.90;99.90;;;;;;4948068;28;20621;-75
2021/09/09 10:43:13;;;;;;;13.03;11.83;;;25.10;99.90;;;;;;4945308;28;20715;-74
2021/09/09 10:45:44;;;;;;;9.87;9.07;;;25.20;99.90;;;;;;4928802;28;20661;-74
2021/09/09 10:48:22;;;;;;;9.80;9.00;;;25.40;99.90;;;;;;4945279;28;20662;-74
2021/09/09 10:51:10;;;;;;;9.80;9.10;;;25.40;99.90;;;;;;4932635;29;21036;-74
2021/09/09 10:53:38;;;;;;;9.60;8.67;;;25.50;99.90;;;;;;4945960;28;21217;-74
2021/09/09 10:56:25;;;;;;;10.13;8.43;;;25.60;99.90;;;;;;4947314;28;21029;-74
2021/09/09 10:59:20;;;;;;;8.77;8.00;;;25.60;99.90;;;;;;4946126;28;20623;-74
2021/09/09 11:01:47;;;;;;;9.27;8.47;;;25.70;99.90;;;;;;4946816;28;20639;-74
2021/09/09 11:04:34;;;;;;;8.53;7.63;;;25.80;99.90;;;;;;4924098;29;20990;-74
2021/09/09 11:07:00;;;;;;;8.87;8.07;;;25.90;99.90;;;;;;4946934;28;20654;-74
2021/09/09 11:09:27;;;;;;;8.27;7.60;;;25.90;99.90;;;;;;4930837;29;20976;-74
2021/09/09 11:12:11;;;;;;;8.90;8.00;;;26.00;99.90;;;;;;4944846;28;20796;-74
2021/09/09 11:14:37;;;;;;;9.27;8.13;;;26.20;99.90;;;;;;4943774;28;20619;-74
2021/09/09 11:17:03;;;;;;;10.57;9.57;;;26.30;99.90;;;;;;4949130;28;20660;-74
2021/09/09 11:19:29;;;;;;;8.90;8.00;;;26.40;99.90;;;;;;4946035;28;20198;-74
2021/09/09 11:21:59;;;;;;;10.20;9.20;;;26.50;99.90;;;;;;4950691;28;20204;-74
2021/09/09 11:24:25;;;;;;;9.83;8.97;;;26.60;99.90;;;;;;4931209;28;20287;-74
2021/09/09 11:26:51;;;;;;;9.30;8.50;;;26.70;99.90;;;;;;4952869;28;20618;-74
2021/09/09 11:29:25;;;;;;;8.97;8.27;;;26.80;99.90;;;;;;4949651;28;20275;-74
2021/09/09 11:31:53;;;;;;;8.80;8.10;;;26.90;99.90;;;;;;4949054;28;20970;-74
2021/09/09 11:34:30;;;;;;;9.47;8.57;;;27.00;99.90;;;;;;4950449;29;21043;-74
2021/09/09 11:36:59;;;;;;;9.03;8.30;;;27.10;99.90;;;;;;4950629;28;20659;-74
2021/09/09 11:39:30;;;;;;;9.93;9.07;;;27.20;99.90;;;;;;4950437;28;20722;-74
2021/09/09 11:41:56;;;;;;;9.03;8.23;;;27.30;99.90;;;;;;4934831;28;20746;-74
2021/09/09 11:44:37;;;;;;;10.03;9.00;;;27.40;99.90;;;;;;4952536;28;20695;-74
2021/09/09 11:47:18;;;;;;;9.80;9.00;;;27.50;99.90;;;;;;4944252;28;21515;-74
2021/09/09 11:49:44;;;;;;;10.37;9.50;;;27.50;99.90;;;;;;4950543;28;20614;-74
2021/09/09 11:52:11;;;;;;;10.10;8.90;;;27.60;99.90;;;;;;4949916;28;20817;-74
2021/09/09 11:54:38;;;;;;;9.33;8.53;;;27.60;99.90;;;;;;4948389;28;20626;-74
2021/09/09 11:57:10;;;;;;;10.20;9.20;;;27.60;99.90;;;;;;4944287;28;20278;-74
2021/09/09 11:59:38;;;;;;;9.90;9.10;;;27.70;99.90;;;;;;4925549;28;20619;-74
2021/09/09 12:02:08;;;;;;;10.67;9.83;;;27.80;99.90;;;;;;4949646;28;20922;-74
2021/09/09 12:04:37;;;;;;;9.77;9.03;;;27.90;99.90;;;;;;4946249;28;20662;-74
2021/09/09 12:07:04;;;;;;;9.50;8.70;;;28.00;99.90;;;;;;4944916;28;20637;-74
2021/09/09 12:09:32;;;;;;;10.63;9.27;;;28.10;99.90;;;;;;4930129;29;20642;-73
2021/09/09 12:12:03;;;;;;;10.10;9.27;;;28.30;99.90;;;;;;4950892;28;21289;-73
2021/09/09 12:14:29;;;;;;;14.70;10.33;;;28.50;99.90;;;;;;4943724;28;20630;-73
2021/09/09 12:17:07;;;;;;;10.63;9.67;;;28.50;99.90;;;;;;4947404;28;20725;-74
2021/09/09 12:19:54;;;;;;;10.47;9.57;;;28.70;99.90;;;;;;4948711;28;20655;-73
2021/09/09 12:22:21;;;;;;;9.90;9.10;;;28.80;99.90;;;;;;4950013;28;20676;-73
2021/09/09 12:24:47;;;;;;;9.53;8.67;;;28.90;99.90;;;;;;4945182;28;20638;-74
2021/09/09 12:27:18;;;;;;;9.60;8.80;;;29.00;99.90;;;;;;4953566;28;20641;-73
2021/09/09 12:29:45;;;;;;;10.03;9.33;;;29.00;99.90;;;;;;4964788;28;20190;-74
2021/09/09 12:32:28;;;;;;;12.20;9.77;;;29.10;99.90;;;;;;4956816;28;20739;-74
2021/09/09 12:35:14;;;;;;;10.27;9.47;;;29.20;99.90;;;;;;4948596;28;20631;-74